Flight Track Log - Related Links

Times and Time Zones

All times are in EDT time to prevent confusion due to time zone crossing. See the EGF4393 flight status page for this flight to view local times or setup timezone preferences in your user account.

Time Position Orientation Groundspeed Altitude Reporting Facility
EDT Latitude Longitude Course Direction KTS MPH feet Rate Location/Type
Sat 03:48:53 PM 41.9667 -87.8000 346° North 232 267 3,400  Level Chicago TRACON
Sat 03:49:15 PM 41.9642 -87.7933 117° Southeast 194 223 3,600 1,929 Climbing Chicago Center
Sat 03:50:00 PM 42.2410 -87.9894 350° North  Level FlightAware Approximate
Sat 03:50:17 PM 41.9814 -87.6769 79° East 262 302 6,100  Level Chicago Center
Sat 03:51:00 PM 42.3340 -88.0127 350° North  Level FlightAware Approximate
Sat 03:51:19 PM 42.0467 -87.6997 345° North 280 322 8,700  Level Chicago Center
Sat 03:52:00 PM 42.4239 -88.0515 352° North  Level FlightAware Approximate
Sat 03:52:21 PM 42.1197 -87.7211 348° North 292 336 11,600  Level Chicago Center
Sat 03:53:00 PM 42.5143 -88.0809 324° Northwest  Level FlightAware Approximate
Sat 03:53:22 PM 42.2053 -87.7142 North 306 352 13,200  Level Chicago Center
Sat 03:54:00 PM 42.5970 -88.1100 346° North  Level FlightAware Approximate
Sat 03:54:24 PM 42.3061 -87.7072 North 355 409 13,700  Level Chicago Center
Sat 03:55:26 PM 42.4144 -87.6972 North 387 445 14,600 1,258 Climbing Chicago Center
Sat 03:56:28 PM 42.5478 -87.6839 North 405 466 16,300 1,366 Climbing Chicago Center
Sat 03:57:29 PM 42.6561 -87.6744 North 404 465 17,400 927 Climbing Chicago Center
Sat 03:58:31 PM 42.7528 -87.7397 334° Northwest 391 450 18,200 871 Climbing Chicago Center
Sat 03:59:33 PM 42.8431 -87.8206 327° Northwest 386 444 19,200 1,016 Climbing Chicago Center
Sat 04:00:35 PM 42.9336 -87.9050 326° Northwest 392 451 20,300 1,065 Climbing Chicago Center
Sat 04:01:37 PM 43.0392 -88.0022 326° Northwest 393 452 21,400 829 Climbing Chicago Center
Sat 04:02:38 PM 43.1308 -88.0883 326° Northwest 398 458 22,000 293 Climbing Chicago Center
Sat 04:03:40 PM 43.2264 -88.1767 326° Northwest 412 474 22,000  Level Chicago Center
Sat 04:04:42 PM 43.3206 -88.2636 326° Northwest 409 471 22,000  Level Chicago Center
Sat 04:05:44 PM 43.4128 -88.3508 326° Northwest 406 467 22,000  Level Chicago Center
Sat 04:06:27 PM 43.4872 -88.4203 326° Northwest 403 464 22,000  Level Minneapolis Center
Sat 04:06:46 PM 43.5175 -88.4481 326° Northwest 402 463 22,000  Level Chicago Center
Sat 04:07:48 PM 43.6078 -88.5342 325° Northwest 401 461 22,000 -341 Level Chicago Center
Sat 04:08:49 PM 43.6994 -88.6228 325° Northwest 404 465 21,300 -757 Descending Chicago Center
Sat 04:09:31 PM 43.7597 -88.6797 326° Northwest 399 459 20,700 -968 Descending Minneapolis Center
Sat 04:09:51 PM 43.7894 -88.7092 324° Northwest 396 456 20,300 -1,317 Descending Chicago Center
Sat 04:10:53 PM 43.8928 -88.8064 326° Northwest 387 445 18,900 -1,355 Descending Chicago Center
Sat 04:11:55 PM 43.9783 -88.8892 325° Northwest 379 436 17,500 -1,258 Descending Chicago Center
Sat 04:12:57 PM 44.0628 -88.9700 325° Northwest 371 427 16,300 -1,073 Descending Chicago Center
Sat 04:13:58 PM 44.1508 -89.0417 330° Northwest 367 422 15,300 -1,010 Descending Chicago Center
Sat 04:14:38 PM 44.2144 -89.0928 330° Northwest 379 436 14,600 -1,000 Descending Minneapolis Center
Sat 04:15:40 PM 44.3075 -89.1675 330° Northwest 373 429 13,600 -1,220 Descending Minneapolis Center
Sat 04:16:41 PM 44.3992 -89.2394 331° Northwest 364 419 12,100 -1,415 Descending Minneapolis Center
Sat 04:17:43 PM 44.4822 -89.3047 331° Northwest 325 374 10,700 -1,610 Descending Minneapolis Center
Sat 04:18:44 PM 44.5467 -89.3558 331° Northwest 279 321 8,800 -2,146 Descending Minneapolis Center
Sat 04:19:46 PM 44.6125 -89.4092 330° Northwest 266 306 6,300 -1,951 Descending Minneapolis Center
Sat 04:20:47 PM 44.6742 -89.4583 330° Northwest 244 281 4,800 -1,220 Descending Minneapolis Center
Sat 04:21:49 PM 44.7394 -89.5086 331° Northwest 255 293 3,800 -968 Descending Minneapolis Center

Login

Don't have an account? Register now (free) for customized features, flight alerts, and more!